createdAt,value
2023-05-22T00:01:49.372Z,22.35
2023-05-22T00:04:21.169Z,22.10
2023-05-22T00:06:48.144Z,22.26
2023-05-22T00:09:15.148Z,22.33
2023-05-22T00:11:41.613Z,22.19
2023-05-22T00:14:08.028Z,22.24
2023-05-22T00:16:34.420Z,22.55
2023-05-22T00:19:01.933Z,22.18
2023-05-22T00:21:28.358Z,22.26
2023-05-22T00:23:54.762Z,22.59
2023-05-22T00:26:23.309Z,22.94
2023-05-22T00:28:49.804Z,23.00
2023-05-22T00:31:16.615Z,22.86
2023-05-22T00:33:43.024Z,22.55
2023-05-22T00:36:09.654Z,22.74
2023-05-22T00:38:37.464Z,23.10
2023-05-22T00:41:04.051Z,22.82
2023-05-22T00:43:30.604Z,22.83
2023-05-22T00:45:57.715Z,22.54
2023-05-22T00:48:26.174Z,22.36
2023-05-22T00:50:54.204Z,22.28
2023-05-22T00:53:20.610Z,22.34
2023-05-22T00:55:47.382Z,22.29
2023-05-22T00:58:14.472Z,22.66
2023-05-22T01:00:42.095Z,22.82
2023-05-22T01:03:09.724Z,23.07
2023-05-22T01:05:36.280Z,23.29
2023-05-22T01:08:02.634Z,23.10
2023-05-22T01:10:29.100Z,22.86
2023-05-22T01:12:55.518Z,22.45
2023-05-22T01:15:21.934Z,22.44
2023-05-22T01:17:48.479Z,22.27
2023-05-22T01:20:15.017Z,22.70
2023-05-22T01:22:42.577Z,22.94
2023-05-22T01:25:09.021Z,22.89
2023-05-22T01:27:35.522Z,23.16
2023-05-22T01:30:01.939Z,23.42
2023-05-22T01:32:28.940Z,22.90
2023-05-22T01:34:55.500Z,22.62
2023-05-22T01:37:22.623Z,23.30
2023-05-22T01:39:49.282Z,23.38
2023-05-22T01:42:15.932Z,23.50
2023-05-22T01:44:42.333Z,23.30
2023-05-22T01:47:08.678Z,23.37
2023-05-22T01:49:36.425Z,23.10
2023-05-22T01:52:02.925Z,23.26
2023-05-22T01:54:30.256Z,23.14
2023-05-22T01:56:56.986Z,23.17
2023-05-22T01:59:25.523Z,22.90
2023-05-22T02:01:52.231Z,22.42
2023-05-22T02:04:18.678Z,22.73
2023-05-22T02:06:45.053Z,22.37
2023-05-22T02:09:11.506Z,22.17
2023-05-22T02:11:38.247Z,22.24
2023-05-22T02:14:04.666Z,22.69
2023-05-22T02:16:31.159Z,22.19
2023-05-22T02:18:57.684Z,22.24
2023-05-22T02:21:24.093Z,22.36
2023-05-22T02:23:50.618Z,22.48
2023-05-22T02:26:17.880Z,22.61
2023-05-22T02:28:44.424Z,22.77
2023-05-22T02:31:11.100Z,22.18
2023-05-22T02:33:37.529Z,21.71
2023-05-22T02:36:04.193Z,21.88
2023-05-22T02:38:30.640Z,21.77
2023-05-22T02:40:57.113Z,21.90
2023-05-22T02:43:23.538Z,21.85
2023-05-22T02:45:50.791Z,21.97
2023-05-22T02:48:17.459Z,21.74
2023-05-22T02:50:44.236Z,21.79
2023-05-22T02:53:11.008Z,21.47
2023-05-22T02:55:37.426Z,21.89
2023-05-22T02:58:04.041Z,21.70
2023-05-22T03:00:31.310Z,21.68
2023-05-22T03:02:57.880Z,21.78
2023-05-22T03:05:24.421Z,21.48
2023-05-22T03:07:52.948Z,21.34
2023-05-22T03:10:19.505Z,21.05
2023-05-22T03:12:45.980Z,21.20
2023-05-22T03:15:12.808Z,21.31
2023-05-22T03:17:41.236Z,21.05
2023-05-22T03:20:08.741Z,21.35
2023-05-22T03:22:35.269Z,21.02
2023-05-22T03:25:01.673Z,21.27
2023-05-22T03:27:29.266Z,21.01
2023-05-22T03:29:55.827Z,21.11
2023-05-22T03:32:23.446Z,21.16
2023-05-22T03:34:49.952Z,21.64
2023-05-22T03:37:16.544Z,21.56
2023-05-22T03:39:43.107Z,21.61
2023-05-22T03:42:18.947Z,21.33
2023-05-22T03:44:46.062Z,21.01
2023-05-22T03:47:12.735Z,20.85
2023-05-22T03:49:39.173Z,21.16
2023-05-22T03:52:05.622Z,20.86
2023-05-22T03:54:31.990Z,20.76
2023-05-22T03:56:58.385Z,20.17
2023-05-22T03:59:24.876Z,20.67
2023-05-22T04:01:51.353Z,20.76
2023-05-22T04:04:17.817Z,20.79
2023-05-22T04:06:44.282Z,20.64
2023-05-22T04:09:12.703Z,20.53
2023-05-22T04:11:42.438Z,20.44
2023-05-22T04:14:08.887Z,20.70
2023-05-22T04:16:35.322Z,20.72
2023-05-22T04:19:03.255Z,20.73
2023-05-22T04:21:29.873Z,20.63
2023-05-22T04:23:56.362Z,20.29
2023-05-22T04:26:23.423Z,20.51
2023-05-22T04:28:49.873Z,20.42
2023-05-22T04:31:17.038Z,20.36
2023-05-22T04:33:48.245Z,20.26
2023-05-22T04:36:14.668Z,20.29
2023-05-22T04:38:41.427Z,20.51
2023-05-22T04:41:11.121Z,20.85
2023-05-22T04:43:38.724Z,21.04
2023-05-22T04:46:05.221Z,20.54
2023-05-22T04:48:31.635Z,20.52
2023-05-22T04:50:58.480Z,20.09
2023-05-22T04:53:25.016Z,20.23
2023-05-22T04:55:52.877Z,20.21
2023-05-22T04:58:19.569Z,20.23
2023-05-22T05:00:46.014Z,19.80
2023-05-22T05:03:12.833Z,20.04
2023-05-22T05:05:41.605Z,20.60
2023-05-22T05:08:08.308Z,21.07
2023-05-22T05:10:34.888Z,20.83
2023-05-22T05:13:01.614Z,20.66
2023-05-22T05:15:29.359Z,21.03
2023-05-22T05:17:56.153Z,21.06
2023-05-22T05:20:22.620Z,20.94
2023-05-22T05:22:49.995Z,21.09
2023-05-22T05:25:17.496Z,20.75
2023-05-22T05:27:43.984Z,20.92
2023-05-22T05:30:10.866Z,21.02
2023-05-22T05:33:09.880Z,21.05
2023-05-22T05:35:56.035Z,20.59
2023-05-22T05:38:24.484Z,20.88
2023-05-22T05:40:50.972Z,20.64
2023-05-22T05:43:19.381Z,21.03
2023-05-22T05:45:45.871Z,20.70
2023-05-22T05:48:12.771Z,20.64
2023-05-22T05:50:42.782Z,21.33
2023-05-22T05:53:09.370Z,21.54
2023-05-22T05:55:35.947Z,21.35
2023-05-22T05:58:03.728Z,22.08
2023-05-22T06:00:45.936Z,21.88
2023-05-22T06:03:14.454Z,21.34
2023-05-22T06:05:49.808Z,20.90
2023-05-22T06:08:22.748Z,20.92
2023-05-22T06:10:49.706Z,20.67
2023-05-22T06:13:31.401Z,20.65
2023-05-22T06:16:00.501Z,20.92
2023-05-22T06:18:28.613Z,20.74
2023-05-22T06:20:58.998Z,20.82
2023-05-22T06:23:25.828Z,21.40
2023-05-22T06:25:54.062Z,21.50
2023-05-22T06:28:21.322Z,21.22
2023-05-22T06:30:48.240Z,21.17
2023-05-22T06:33:18.549Z,21.16
2023-05-22T06:35:45.522Z,21.56
2023-05-22T06:38:12.069Z,21.44
2023-05-22T06:40:40.625Z,21.39
2023-05-22T06:43:16.769Z,21.80
2023-05-22T06:45:53.930Z,21.97
2023-05-22T06:48:23.632Z,22.45
2023-05-22T06:51:16.987Z,22.31
2023-05-22T06:53:47.188Z,22.24
2023-05-22T06:56:18.260Z,22.04
2023-05-22T06:58:57.124Z,22.39
2023-05-22T07:01:31.496Z,22.34
2023-05-22T07:04:05.365Z,22.32
2023-05-22T07:06:54.776Z,22.30
2023-05-22T07:09:21.645Z,22.39
2023-05-22T07:11:49.104Z,22.41
2023-05-22T07:14:16.353Z,22.27
2023-05-22T07:16:43.764Z,22.24
2023-05-22T07:19:11.914Z,22.06
2023-05-22T07:21:39.242Z,22.26
2023-05-22T07:24:10.608Z,22.16
2023-05-22T07:26:40.373Z,22.27
2023-05-22T07:29:10.516Z,22.31
2023-05-22T07:31:39.028Z,22.45
2023-05-22T07:34:05.768Z,22.05
2023-05-22T07:36:32.534Z,21.42
2023-05-22T07:38:58.954Z,21.58
2023-05-22T07:41:25.598Z,21.65
2023-05-22T07:43:52.338Z,21.74
2023-05-22T07:46:25.000Z,21.95
2023-05-22T07:48:57.901Z,21.68
2023-05-22T07:51:24.528Z,21.35
2023-05-22T07:53:51.604Z,21.94
2023-05-22T07:56:18.026Z,22.16
2023-05-22T07:58:48.312Z,22.50
2023-05-22T08:01:18.401Z,22.33
2023-05-22T08:03:44.975Z,22.60
2023-05-22T08:06:11.754Z,22.67
2023-05-22T08:08:38.279Z,22.28
2023-05-22T08:11:04.956Z,23.01
2023-05-22T08:13:32.211Z,22.53
2023-05-22T08:16:00.243Z,22.30
2023-05-22T08:18:29.018Z,22.59
2023-05-22T08:20:55.933Z,22.27
2023-05-22T08:23:22.423Z,22.12
2023-05-22T08:25:50.090Z,22.04
2023-05-22T08:28:16.536Z,21.61
2023-05-22T08:30:42.987Z,22.34
2023-05-22T08:33:09.430Z,22.41
2023-05-22T08:35:36.010Z,21.93
2023-05-22T08:38:02.507Z,22.27
2023-05-22T08:40:28.906Z,22.12
2023-05-22T08:42:57.474Z,21.94
2023-05-22T08:45:25.873Z,21.71
2023-05-22T08:47:53.186Z,21.69
2023-05-22T08:50:19.669Z,21.49
2023-05-22T08:52:46.070Z,21.84
2023-05-22T08:55:12.564Z,21.85
2023-05-22T08:57:38.999Z,22.05
2023-05-22T09:00:05.735Z,21.05
2023-05-22T09:02:32.162Z,20.92
2023-05-22T09:04:58.716Z,20.92
2023-05-22T09:07:27.891Z,21.31
2023-05-22T09:09:54.312Z,21.07
2023-05-22T09:12:20.710Z,20.98
2023-05-22T09:14:47.150Z,21.27
2023-05-22T09:17:13.786Z,21.49
2023-05-22T09:19:40.785Z,21.57
2023-05-22T09:22:07.561Z,21.11
2023-05-22T09:24:34.914Z,21.33
2023-05-22T09:27:01.360Z,20.96
2023-05-22T09:29:27.741Z,21.44
2023-05-22T09:31:54.212Z,21.62
2023-05-22T09:34:20.769Z,21.68
2023-05-22T09:36:47.294Z,21.84
2023-05-22T09:39:13.825Z,21.67
2023-05-22T09:41:40.267Z,21.42
2023-05-22T09:44:06.684Z,21.71
2023-05-22T09:46:33.087Z,21.98
2023-05-22T09:48:59.545Z,21.47
2023-05-22T09:51:27.372Z,21.66
2023-05-22T09:53:54.294Z,21.29
2023-05-22T09:56:34.878Z,21.99
2023-05-22T09:59:05.409Z,22.26
2023-05-22T10:01:32.023Z,21.89
2023-05-22T10:03:58.486Z,22.20
2023-05-22T10:06:24.958Z,22.28
2023-05-22T10:08:51.645Z,22.19
2023-05-22T10:11:18.031Z,22.03
2023-05-22T10:13:45.192Z,22.13
2023-05-22T10:16:12.174Z,21.90
2023-05-22T10:18:38.663Z,22.26
2023-05-22T10:21:05.074Z,22.05
2023-05-22T10:23:31.808Z,22.70
2023-05-22T10:25:58.250Z,22.49
2023-05-22T10:28:24.654Z,22.12
2023-05-22T10:30:51.211Z,22.57
2023-05-22T10:33:37.910Z,22.60
2023-05-22T10:36:04.518Z,21.75
2023-05-22T10:38:30.981Z,21.73
2023-05-22T10:40:57.427Z,22.34
2023-05-22T10:43:23.946Z,22.16
2023-05-22T10:45:50.427Z,22.22
2023-05-22T10:48:16.864Z,22.36
2023-05-22T10:50:43.807Z,22.27
2023-05-22T10:53:10.238Z,22.43
2023-05-22T10:55:36.721Z,22.19
2023-05-22T10:58:05.050Z,22.10
2023-05-22T11:00:31.651Z,22.82
2023-05-22T11:03:10.076Z,22.72
2023-05-22T11:05:43.940Z,23.39
2023-05-22T11:08:10.434Z,22.75
2023-05-22T11:10:36.822Z,23.45
2023-05-22T11:13:03.883Z,23.71
2023-05-22T11:15:30.310Z,23.36
2023-05-22T11:17:57.776Z,23.52
2023-05-22T11:20:24.767Z,23.03
2023-05-22T11:22:53.488Z,23.62
2023-05-22T11:25:20.093Z,23.95
2023-05-22T11:27:46.515Z,24.05
2023-05-22T11:30:13.168Z,24.51
2023-05-22T11:32:39.827Z,24.30
2023-05-22T11:35:08.195Z,25.01
2023-05-22T11:37:34.636Z,24.80
2023-05-22T11:40:01.212Z,24.58
2023-05-22T11:42:27.718Z,24.56
2023-05-22T11:44:54.140Z,25.01
2023-05-22T11:47:20.626Z,24.78
2023-05-22T11:49:46.997Z,24.76
2023-05-22T11:52:13.442Z,24.31
2023-05-22T11:54:39.881Z,25.21
2023-05-22T11:57:06.814Z,25.44
2023-05-22T11:59:33.227Z,24.84
2023-05-22T12:01:59.971Z,24.93
2023-05-22T12:04:26.436Z,25.40
2023-05-22T12:06:53.060Z,25.22
2023-05-22T12:09:19.540Z,25.20
2023-05-22T12:11:46.676Z,25.02
2023-05-22T12:14:13.108Z,25.01
2023-05-22T12:16:39.780Z,25.19
2023-05-22T12:19:06.510Z,25.07
2023-05-22T12:21:33.029Z,25.17
2023-05-22T12:23:59.459Z,25.52
2023-05-22T12:26:25.849Z,25.34
2023-05-22T12:28:52.315Z,25.04
2023-05-22T12:31:18.714Z,25.43
2023-05-22T12:33:45.106Z,25.43
2023-05-22T12:36:11.549Z,25.73
2023-05-22T12:38:38.555Z,25.64
2023-05-22T12:41:05.125Z,25.88
2023-05-22T12:43:31.519Z,25.14
2023-05-22T12:45:58.590Z,25.96
2023-05-22T12:48:26.164Z,26.23
2023-05-22T12:50:52.622Z,26.02
2023-05-22T12:53:19.615Z,26.17
2023-05-22T12:55:46.018Z,26.08
2023-05-22T12:58:12.413Z,25.99
2023-05-22T13:00:39.033Z,26.14
2023-05-22T13:03:05.705Z,25.80
2023-05-22T13:05:32.263Z,26.26
2023-05-22T13:07:58.703Z,26.59
2023-05-22T13:10:25.220Z,26.43
2023-05-22T13:12:51.721Z,25.97
2023-05-22T13:15:18.194Z,26.32
2023-05-22T13:17:44.658Z,26.25
2023-05-22T13:20:11.194Z,26.35
2023-05-22T13:22:37.678Z,26.62
2023-05-22T13:25:04.110Z,26.14
2023-05-22T13:27:32.683Z,26.84
2023-05-22T13:30:00.225Z,26.86
2023-05-22T13:32:26.728Z,26.50
2023-05-22T13:34:53.180Z,26.32
2023-05-22T13:37:19.754Z,26.54
2023-05-22T13:39:46.261Z,26.64
2023-05-22T13:42:12.645Z,26.85
2023-05-22T13:44:39.089Z,26.62
2023-05-22T13:47:05.555Z,26.24
2023-05-22T13:49:31.981Z,26.62
2023-05-22T13:51:58.397Z,26.35
2023-05-22T13:54:24.801Z,26.84
2023-05-22T13:56:51.220Z,26.93
2023-05-22T13:59:17.657Z,26.66
2023-05-22T14:01:44.111Z,26.77
2023-05-22T14:04:10.521Z,26.82
2023-05-22T14:06:36.942Z,27.01
2023-05-22T14:09:06.007Z,26.93
2023-05-22T14:11:32.390Z,26.75
2023-05-22T14:13:58.873Z,26.56
2023-05-22T14:16:25.337Z,26.60
2023-05-22T14:18:51.966Z,26.89
2023-05-22T14:21:19.001Z,27.00
2023-05-22T14:23:45.627Z,26.61
2023-05-22T14:26:13.694Z,27.26
2023-05-22T14:28:40.913Z,26.84
2023-05-22T14:31:07.360Z,26.77
2023-05-22T14:33:33.900Z,27.31
2023-05-22T14:36:00.300Z,27.25
2023-05-22T14:38:26.732Z,27.38
2023-05-22T14:40:53.133Z,26.97
2023-05-22T14:43:19.580Z,26.15
2023-05-22T14:45:45.954Z,25.93
2023-05-22T14:48:12.805Z,26.02
2023-05-22T14:50:39.292Z,25.98
2023-05-22T14:53:05.792Z,26.11
2023-05-22T14:55:32.222Z,25.96
2023-05-22T14:57:58.656Z,26.12
2023-05-22T15:00:25.111Z,26.82
2023-05-22T15:02:51.655Z,26.36
2023-05-22T15:05:18.206Z,26.11
2023-05-22T15:07:46.705Z,26.15
2023-05-22T15:10:14.327Z,26.70
2023-05-22T15:12:40.835Z,26.00
2023-05-22T15:15:07.358Z,26.30
2023-05-22T15:17:33.862Z,26.22
2023-05-22T15:20:00.443Z,26.00
2023-05-22T15:22:26.884Z,25.91
2023-05-22T15:24:53.283Z,26.38
2023-05-22T15:27:19.719Z,26.11
2023-05-22T15:29:46.114Z,26.46
2023-05-22T15:32:12.641Z,26.39
2023-05-22T15:34:39.060Z,26.35
2023-05-22T15:37:05.476Z,26.61
2023-05-22T15:39:31.983Z,26.42
2023-05-22T15:42:05.884Z,26.29
2023-05-22T15:44:33.317Z,26.27
2023-05-22T15:46:59.756Z,26.23
2023-05-22T15:49:28.626Z,26.66
2023-05-22T15:51:56.642Z,26.45
2023-05-22T15:54:23.036Z,26.90
2023-05-22T15:56:49.501Z,27.18
2023-05-22T15:59:15.863Z,26.87
2023-05-22T16:01:42.424Z,27.07
2023-05-22T16:04:08.826Z,27.15
2023-05-22T16:06:35.282Z,27.34
2023-05-22T16:09:01.664Z,27.45
2023-05-22T16:11:28.094Z,27.35
2023-05-22T16:13:54.489Z,27.72
2023-05-22T16:16:21.255Z,27.97
2023-05-22T16:18:47.719Z,27.81
2023-05-22T16:21:14.131Z,27.85
2023-05-22T16:23:40.994Z,27.84
2023-05-22T16:26:07.457Z,27.96
2023-05-22T16:28:33.868Z,27.02
2023-05-22T16:31:00.324Z,27.38
2023-05-22T16:33:26.890Z,27.15
2023-05-22T16:35:53.318Z,26.73
2023-05-22T16:38:19.749Z,26.42
2023-05-22T16:40:46.177Z,25.82
2023-05-22T16:43:13.785Z,25.72
2023-05-22T16:45:40.535Z,25.82
2023-05-22T16:48:08.288Z,25.90
2023-05-22T16:50:34.799Z,25.00
2023-05-22T16:53:01.195Z,24.90
2023-05-22T16:55:27.619Z,24.91
2023-05-22T16:57:54.055Z,24.25
2023-05-22T17:00:20.637Z,24.37
2023-05-22T17:02:47.285Z,24.31
2023-05-22T17:05:13.764Z,24.23
2023-05-22T17:07:40.450Z,24.08
2023-05-22T17:10:06.855Z,24.24
2023-05-22T17:12:33.214Z,23.80
2023-05-22T17:14:59.705Z,23.92
2023-05-22T17:17:26.116Z,23.68
2023-05-22T17:19:53.359Z,23.06
2023-05-22T17:22:19.768Z,23.23
2023-05-22T17:24:46.269Z,23.82
2023-05-22T17:29:39.143Z,23.39
2023-05-22T17:32:06.313Z,23.37
2023-05-22T17:34:32.952Z,23.73
2023-05-22T17:36:59.379Z,23.67
2023-05-22T17:39:25.821Z,23.62
2023-05-22T17:41:52.198Z,23.54
2023-05-22T17:44:18.586Z,23.82
2023-05-22T17:46:45.021Z,24.05
2023-05-22T17:49:11.464Z,23.96
2023-05-22T17:51:37.884Z,24.75
2023-05-22T17:54:06.138Z,24.78
2023-05-22T17:56:32.657Z,24.58
2023-05-22T17:58:59.248Z,24.59
2023-05-22T18:01:27.256Z,24.83
2023-05-22T18:03:53.901Z,24.79
2023-05-22T18:06:23.193Z,24.05
2023-05-22T18:08:50.461Z,24.08
2023-05-22T18:11:16.984Z,24.38
2023-05-22T18:13:43.371Z,24.60
2023-05-22T18:16:09.809Z,24.45
2023-05-22T18:18:36.335Z,24.23
2023-05-22T18:21:02.728Z,23.76
2023-05-22T18:23:29.233Z,23.91
2023-05-22T18:25:57.225Z,23.88
2023-05-22T18:28:26.277Z,24.68
2023-05-22T18:30:52.669Z,24.53
2023-05-22T18:33:19.117Z,24.27
2023-05-22T18:35:45.718Z,24.30
2023-05-22T18:38:12.357Z,24.12
2023-05-22T18:40:39.259Z,24.08
2023-05-22T18:43:06.076Z,24.22
2023-05-22T18:45:32.544Z,24.03
2023-05-22T18:47:59.028Z,24.10
2023-05-22T18:50:26.361Z,24.29
2023-05-22T18:52:52.818Z,24.07
2023-05-22T18:55:19.350Z,24.37
2023-05-22T18:57:45.882Z,24.28
2023-05-22T19:00:12.344Z,24.11
2023-05-22T19:02:38.938Z,24.00
2023-05-22T19:05:05.619Z,23.98
2023-05-22T19:07:32.245Z,24.12
2023-05-22T19:09:58.655Z,24.01
2023-05-22T19:12:25.584Z,23.62
2023-05-22T19:14:52.548Z,23.61
2023-05-22T19:17:19.019Z,23.81
2023-05-22T19:19:46.722Z,23.64
2023-05-22T19:22:13.185Z,23.35
2023-05-22T19:24:39.584Z,23.28
2023-05-22T19:27:06.171Z,23.02
2023-05-22T19:29:32.617Z,23.37
2023-05-22T19:31:59.303Z,22.99
2023-05-22T19:34:25.739Z,22.99
2023-05-22T19:36:52.266Z,22.91
2023-05-22T19:39:18.906Z,22.92
2023-05-22T19:41:45.772Z,22.98
2023-05-22T19:44:12.617Z,23.13
2023-05-22T19:46:39.077Z,22.76
2023-05-22T19:49:05.474Z,22.74
2023-05-22T19:51:32.416Z,23.11
2023-05-22T19:53:58.785Z,22.98
2023-05-22T19:56:25.238Z,22.00
2023-05-22T19:58:51.644Z,21.92
2023-05-22T20:01:18.086Z,21.97
2023-05-22T20:03:44.618Z,21.89
2023-05-22T20:06:12.359Z,21.89
2023-05-22T20:08:39.064Z,22.16
2023-05-22T20:11:05.500Z,22.00
2023-05-22T20:13:32.404Z,22.03
2023-05-22T20:16:03.741Z,21.97
2023-05-22T20:18:33.192Z,22.15
2023-05-22T20:20:59.670Z,22.01
2023-05-22T20:23:26.508Z,21.44
2023-05-22T20:25:53.112Z,21.49
2023-05-22T20:28:20.041Z,21.51
2023-05-22T20:30:46.980Z,21.75
2023-05-22T20:33:14.310Z,21.98
2023-05-22T20:35:41.068Z,22.12
2023-05-22T20:38:09.805Z,21.60
2023-05-22T20:40:42.242Z,21.35
2023-05-22T20:43:09.007Z,21.72
2023-05-22T20:45:36.151Z,21.21
2023-05-22T20:48:02.812Z,21.24
2023-05-22T20:50:29.255Z,21.24
2023-05-22T20:52:55.672Z,21.58
2023-05-22T20:55:22.090Z,21.51
2023-05-22T20:57:48.779Z,21.34
2023-05-22T21:00:15.212Z,21.43
2023-05-22T21:02:41.815Z,21.56
2023-05-22T21:05:08.305Z,21.74
2023-05-22T21:07:34.735Z,21.26
2023-05-22T21:10:01.499Z,21.49
2023-05-22T21:12:28.067Z,22.44
2023-05-22T21:14:54.509Z,22.62
2023-05-22T21:17:21.077Z,22.08
2023-05-22T21:19:47.532Z,21.78
2023-05-22T21:22:13.949Z,22.21
2023-05-22T21:24:40.752Z,22.25
2023-05-22T21:27:07.274Z,21.85
2023-05-22T21:29:33.670Z,21.44
2023-05-22T21:32:00.152Z,20.86
2023-05-22T21:34:26.653Z,21.68
2023-05-22T21:36:53.060Z,21.25
2023-05-22T21:39:19.463Z,21.36
2023-05-22T21:41:47.159Z,21.25
2023-05-22T21:44:15.207Z,21.19
2023-05-22T21:46:41.649Z,21.26
2023-05-22T21:49:09.579Z,21.05
2023-05-22T21:51:36.078Z,21.35
2023-05-22T21:54:02.464Z,20.77
2023-05-22T21:56:28.886Z,20.70
2023-05-22T21:58:55.262Z,20.57
2023-05-22T22:01:21.725Z,20.63
2023-05-22T22:03:48.189Z,20.98
2023-05-22T22:06:14.778Z,20.64
2023-05-22T22:08:41.182Z,20.44
2023-05-22T22:11:08.405Z,20.78
2023-05-22T22:13:34.868Z,20.63
2023-05-22T22:16:01.292Z,20.65
2023-05-22T22:18:27.922Z,20.81
2023-05-22T22:20:55.834Z,20.97
2023-05-22T22:23:22.277Z,21.00
2023-05-22T22:25:48.781Z,20.88
2023-05-22T22:28:15.238Z,21.59
2023-05-22T22:30:41.775Z,21.20
2023-05-22T22:33:08.587Z,20.73
2023-05-22T22:35:35.045Z,20.58
2023-05-22T22:38:01.500Z,21.03
2023-05-22T22:40:27.926Z,21.11
2023-05-22T22:42:54.347Z,20.72
2023-05-22T22:45:20.759Z,20.42
2023-05-22T22:47:47.384Z,20.62
2023-05-22T22:50:13.862Z,20.28
2023-05-22T22:52:40.304Z,19.90
2023-05-22T22:55:07.130Z,19.88
2023-05-22T22:57:33.709Z,19.54
2023-05-22T23:00:00.169Z,19.59
2023-05-22T23:02:26.630Z,19.76
2023-05-22T23:04:53.240Z,20.09
2023-05-22T23:07:19.705Z,20.07
2023-05-22T23:09:46.101Z,20.47
2023-05-22T23:12:12.641Z,19.86
2023-05-22T23:14:39.056Z,19.55
2023-05-22T23:17:05.836Z,20.02
2023-05-22T23:19:32.359Z,20.21
2023-05-22T23:21:58.893Z,19.77
2023-05-22T23:24:25.252Z,20.02
2023-05-22T23:26:52.918Z,19.67
2023-05-22T23:29:19.280Z,19.82
2023-05-22T23:31:47.370Z,19.41
2023-05-22T23:34:14.045Z,19.22
2023-05-22T23:36:40.446Z,19.82
2023-05-22T23:39:06.946Z,19.96
2023-05-22T23:41:33.561Z,20.08
2023-05-22T23:43:59.974Z,20.33
2023-05-22T23:46:26.474Z,19.52
2023-05-22T23:48:52.875Z,19.87
2023-05-22T23:51:19.292Z,19.98
2023-05-22T23:53:46.062Z,19.57
2023-05-22T23:56:12.456Z,19.95
2023-05-22T23:58:38.934Z,19.45
